Bookmark and Share
Track history (hours):
 

First Ferry Vi

Last reported at 2014-Apr-25 05:18 UTC. Time now 2014-Apr-25 06:04 UTC.
Position N 22°18' E 114°08'.

Length 36 m; draft 1.8 m.

Type: Ship. MMSI: 477995028.

NotesDate/timePositionNaut miles runAvg speedWind from/ knotsBaromVisibWave heightAir tempDewpointWater temp
2014-Apr-25 05:18N 22°18' E 114°08'3 0.6
2014-Apr-25 01:12N 22°18' E 114°11'1 0.7
2014-Apr-24 23:28N 22°17' E 114°10'0 0.0
2014-Apr-24 16:33N 22°17' E 114°09'0 0.1
2014-Apr-24 14:23N 22°17' E 114°10'1 1.6
2014-Apr-24 13:29N 22°18' E 114°08'0 0.1
2014-Apr-24 11:09N 22°18' E 114°08'0 0.1
2014-Apr-24 09:19N 22°18' E 114°08'6 5.8
2014-Apr-24 08:19N 22°16' E 114°02'6 5.8
2014-Apr-24 07:18N 22°18' E 114°08'1 0.2
2014-Apr-24 01:13N 22°19' E 114°09'1 0.8
2014-Apr-23 23:29N 22°17' E 114°10'8 1.3
2014-Apr-23 17:05N 22°15' E 114°01'815.2
2014-Apr-23 16:33N 22°17' E 114°10'0 0.0
2014-Apr-23 14:26N 22°17' E 114°10'1 1.3
2014-Apr-23 13:28N 22°18' E 114°08'0 0.0
2014-Apr-23 11:10N 22°18' E 114°08'0 0.1
2014-Apr-23 09:20N 22°18' E 114°08'0 0.5
2014-Apr-23 08:33N 22°18' E 114°08'0 0.1
2014-Apr-23 07:18N 22°18' E 114°08'3 0.4
2014-Apr-23 01:11N 22°18' E 114°11'1 0.8
2014-Apr-22 23:28N 22°17' E 114°10'0 0.0
2014-Apr-22 16:33N 22°17' E 114°10'0 0.0
2014-Apr-22 14:25N 22°17' E 114°10'1 1.5
2014-Apr-22 13:29N 22°18' E 114°08'0 0.1
2014-Apr-22 11:10N 22°18' E 114°09'0 0.3
2014-Apr-22 10:33N 22°18' E 114°08'0 0.2
2014-Apr-22 09:19N 22°18' E 114°08'0 0.2
2014-Apr-22 08:34N 22°18' E 114°08'0 0.2
2014-Apr-22 07:18N 22°18' E 114°08'2 0.3
2014-Apr-22 01:18N 22°19' E 114°09'2 1.1
2014-Apr-21 23:28N 22°17' E 114°10'0 0.0
2014-Apr-21 16:32N 22°17' E 114°10'2 0.8
2014-Apr-21 14:32N 22°18' E 114°08'0 0.1
2014-Apr-21 12:30N 22°18' E 114°08'0 0.1
2014-Apr-21 10:29N 22°18' E 114°08'0 0.0
2014-Apr-21 08:30N 22°18' E 114°08'0 0.2
2014-Apr-21 06:27N 22°18' E 114°08'1 0.4
2014-Apr-21 03:14N 22°17' E 114°10'0 0.0
2014-Apr-21 01:17N 22°17' E 114°10'0 0.0
2014-Apr-20 23:33N 22°17' E 114°10'0 0.0
2014-Apr-20 16:33N 22°17' E 114°10'1 0.7
2014-Apr-20 14:30N 22°18' E 114°08'0 0.1
2014-Apr-20 12:30N 22°18' E 114°08'0 0.0
2014-Apr-20 10:29N 22°18' E 114°08'0 0.1
2014-Apr-20 08:29N 22°18' E 114°08'0 0.1
2014-Apr-20 06:27N 22°18' E 114°08'2 1.0
2014-Apr-20 04:33N 22°17' E 114°10'0 0.1
2014-Apr-20 03:33N 22°17' E 114°10'0 0.0
2014-Apr-20 01:21N 22°17' E 114°10'0 0.1
2014-Apr-19 23:33N 22°17' E 114°10'0 0.0
2014-Apr-19 16:33N 22°17' E 114°10'1 0.7
2014-Apr-19 14:29N 22°18' E 114°08'0 0.0
2014-Apr-19 12:30N 22°18' E 114°08'0 0.1
2014-Apr-19 10:29N 22°18' E 114°08'0 0.2
2014-Apr-19 08:29N 22°18' E 114°08'0 0.1
2014-Apr-19 06:28N 22°18' E 114°08'0 0.0
2014-Apr-19 05:11N 22°18' E 114°08'0 0.4
2014-Apr-19 04:33N 22°18' E 114°08'1 1.2
2014-Apr-19 03:33N 22°17' E 114°10'0 0.1
2014-Apr-19 01:18N 22°17' E 114°10'0 0.0
2014-Apr-18 23:32N 22°17' E 114°10'0 0.0
2014-Apr-18 16:33N 22°17' E 114°10'2 0.8
2014-Apr-18 14:30N 22°18' E 114°08'1 0.3
2014-Apr-18 12:31N 22°18' E 114°07'1 0.3
2014-Apr-18 10:28N 22°18' E 114°08'6 2.0
2014-Apr-18 07:29N 22°16' E 114°02'  
2014-Apr-16 01:13N 22°19' E 114°09'1 0.8
2014-Apr-15 23:28N 22°17' E 114°10'8 8.5
2014-Apr-15 22:31N 22°15' E 114°01'0 0.0
2014-Apr-15 17:04N 22°15' E 114°01'816.0
2014-Apr-15 16:33N 22°17' E 114°10'0 0.1
2014-Apr-15 14:23N 22°17' E 114°10'1 0.8
2014-Apr-15 12:29N 22°18' E 114°08'  

Dump ship's entire track history

sailing weather and tide predictions

First Ferry Vi — VRS4293 — position and weather